<?xml version="1.0" encoding="UTF-8" standalone="no" ?>
<gpx xmlns="http://www.topografix.com/GPX/1/1" xmlns:xsi="http://www.w3.org/2001/XMLSchema-instance" xsi:schemaLocation="http://www.topografix.com/GPX/1/1 http://www.topografix.com/GPX/1/1/gpx.xsd" version="1.1" creator="VisuGPX - https://www.visugpx.com">
  <metadata>
    <name>Les murs peints de Vitry-sur-Seine</name>
    <desc><![CDATA[https://www.visorando.com/randonnee-les-murs-peints-de-vitry-sur-seine/]]></desc>
  </metadata>
  <wpt lat="48.7978" lon="2.39942">
    <ele>34.7</ele>
    <name><![CDATA[1]]></name>
  </wpt>
  <wpt lat="48.79322" lon="2.39586">
    <ele>33.4</ele>
    <name><![CDATA[2]]></name>
  </wpt>
  <wpt lat="48.79181" lon="2.38839">
    <ele>51.3</ele>
    <name><![CDATA[4]]></name>
  </wpt>
  <wpt lat="48.78834" lon="2.39018">
    <ele>48.8</ele>
    <name><![CDATA[5]]></name>
  </wpt>
  <wpt lat="48.79061" lon="2.39277">
    <ele>39.3</ele>
    <name><![CDATA[6]]></name>
  </wpt>
  <wpt lat="48.78997" lon="2.3932">
    <ele>37.6</ele>
    <name><![CDATA[7]]></name>
  </wpt>
  <wpt lat="48.78778" lon="2.3981">
    <ele>34.1</ele>
    <name><![CDATA[8]]></name>
  </wpt>
  <wpt lat="48.78267" lon="2.40191">
    <ele>34.7</ele>
    <name><![CDATA[9]]></name>
  </wpt>
  <wpt lat="48.7913" lon="2.39372">
    <ele>37.5</ele>
    <name><![CDATA[3]]></name>
  </wpt>
  <wpt lat="48.78295" lon="2.40936">
    <ele>33</ele>
    <name><![CDATA[A]]></name>
    <type><![CDATA[gare]]></type>
  </wpt>
  <wpt lat="48.80059" lon="2.40262">
    <ele>35.1</ele>
    <name><![CDATA[D]]></name>
    <type><![CDATA[gare]]></type>
  </wpt>
  <wpt lat="48.80086" lon="2.40256">
    <ele>35</ele>
    <name><![CDATA[robotique]]></name>
    <type><![CDATA[patrimoine_vegetal]]></type>
  </wpt>
  <trk>
    <name><![CDATA[Les murs peints de Vitry-sur-Seine]]></name>
    <extensions>
      <line xmlns="http://www.topografix.com/GPX/gpx_style/0/2">
        <color>0000FF</color>
        <width>4</width>
      </line>
    </extensions>
    <trkseg>
      <trkpt lat="48.80069" lon="2.40261">
        <ele>35</ele>
        <time>2021-04-29T15:47:12+02:00</time>
      </trkpt>
      <trkpt lat="48.80091" lon="2.40248">
        <ele>35</ele>
        <time>2021-04-29T15:47:17+02:00</time>
      </trkpt>
      <trkpt lat="48.80108" lon="2.40238">
        <ele>35</ele>
        <time>2021-04-29T15:47:22+02:00</time>
      </trkpt>
      <trkpt lat="48.801" lon="2.40224">
        <ele>35</ele>
        <time>2021-04-29T15:47:27+02:00</time>
      </trkpt>
      <trkpt lat="48.80093" lon="2.40221">
        <ele>35</ele>
        <time>2021-04-29T15:47:32+02:00</time>
      </trkpt>
      <trkpt lat="48.80083" lon="2.40215">
        <ele>35</ele>
        <time>2021-04-29T15:47:37+02:00</time>
      </trkpt>
      <trkpt lat="48.80071" lon="2.40211">
        <ele>35</ele>
        <time>2021-04-29T15:47:42+02:00</time>
      </trkpt>
      <trkpt lat="48.80069" lon="2.40203">
        <ele>35</ele>
        <time>2021-04-29T15:47:47+02:00</time>
      </trkpt>
      <trkpt lat="48.80069" lon="2.40189">
        <ele>35</ele>
        <time>2021-04-29T15:47:52+02:00</time>
      </trkpt>
      <trkpt lat="48.80072" lon="2.40172">
        <ele>34</ele>
        <time>2021-04-29T15:47:57+02:00</time>
      </trkpt>
      <trkpt lat="48.80095" lon="2.40169">
        <ele>34</ele>
        <time>2021-04-29T15:48:02+02:00</time>
      </trkpt>
      <trkpt lat="48.80095" lon="2.40043">
        <ele>34</ele>
        <time>2021-04-29T15:48:07+02:00</time>
      </trkpt>
      <trkpt lat="48.80098" lon="2.40038">
        <ele>34</ele>
        <time>2021-04-29T15:48:12+02:00</time>
      </trkpt>
      <trkpt lat="48.8012" lon="2.40037">
        <ele>34</ele>
        <time>2021-04-29T15:48:17+02:00</time>
      </trkpt>
      <trkpt lat="48.80119" lon="2.39901">
        <ele>33</ele>
        <time>2021-04-29T15:48:22+02:00</time>
      </trkpt>
      <trkpt lat="48.80119" lon="2.39879">
        <ele>33</ele>
        <time>2021-04-29T15:48:27+02:00</time>
      </trkpt>
      <trkpt lat="48.80117" lon="2.39864">
        <ele>33</ele>
        <time>2021-04-29T15:48:32+02:00</time>
      </trkpt>
      <trkpt lat="48.80027" lon="2.39886">
        <ele>35</ele>
        <time>2021-04-29T15:48:37+02:00</time>
      </trkpt>
      <trkpt lat="48.79982" lon="2.39899">
        <ele>35</ele>
        <time>2021-04-29T15:48:42+02:00</time>
      </trkpt>
      <trkpt lat="48.7992" lon="2.39912">
        <ele>34</ele>
        <time>2021-04-29T15:48:47+02:00</time>
      </trkpt>
      <trkpt lat="48.7986" lon="2.39928">
        <ele>35</ele>
        <time>2021-04-29T15:48:52+02:00</time>
      </trkpt>
      <trkpt lat="48.798" lon="2.39944">
        <ele>35</ele>
        <time>2021-04-29T15:48:57+02:00</time>
      </trkpt>
      <trkpt lat="48.7978" lon="2.39942">
        <ele>35</ele>
        <time>2021-04-29T15:49:02+02:00</time>
      </trkpt>
      <trkpt lat="48.79771" lon="2.39929">
        <ele>34</ele>
        <time>2021-04-29T15:49:07+02:00</time>
      </trkpt>
      <trkpt lat="48.79764" lon="2.39948">
        <ele>34</ele>
        <time>2021-04-29T15:49:12+02:00</time>
      </trkpt>
      <trkpt lat="48.79753" lon="2.39941">
        <ele>34</ele>
        <time>2021-04-29T15:49:17+02:00</time>
      </trkpt>
      <trkpt lat="48.79682" lon="2.39885">
        <ele>35</ele>
        <time>2021-04-29T15:49:22+02:00</time>
      </trkpt>
      <trkpt lat="48.79602" lon="2.39817">
        <ele>35</ele>
        <time>2021-04-29T15:49:27+02:00</time>
      </trkpt>
      <trkpt lat="48.79553" lon="2.39775">
        <ele>35</ele>
        <time>2021-04-29T15:49:32+02:00</time>
      </trkpt>
      <trkpt lat="48.79499" lon="2.3973">
        <ele>35</ele>
        <time>2021-04-29T15:49:37+02:00</time>
      </trkpt>
      <trkpt lat="48.79448" lon="2.39689">
        <ele>35</ele>
        <time>2021-04-29T15:49:42+02:00</time>
      </trkpt>
      <trkpt lat="48.79436" lon="2.39697">
        <ele>35</ele>
        <time>2021-04-29T15:49:47+02:00</time>
      </trkpt>
      <trkpt lat="48.7935" lon="2.39738">
        <ele>34</ele>
        <time>2021-04-29T15:49:52+02:00</time>
      </trkpt>
      <trkpt lat="48.7934" lon="2.39741">
        <ele>34</ele>
        <time>2021-04-29T15:49:57+02:00</time>
      </trkpt>
      <trkpt lat="48.79285" lon="2.39768">
        <ele>34</ele>
        <time>2021-04-29T15:50:02+02:00</time>
      </trkpt>
      <trkpt lat="48.79252" lon="2.39611">
        <ele>35</ele>
        <time>2021-04-29T15:50:07+02:00</time>
      </trkpt>
      <trkpt lat="48.79248" lon="2.39589">
        <ele>36</ele>
        <time>2021-04-29T15:50:12+02:00</time>
      </trkpt>
      <trkpt lat="48.79241" lon="2.39561">
        <ele>36</ele>
        <time>2021-04-29T15:50:17+02:00</time>
      </trkpt>
      <trkpt lat="48.79224" lon="2.39552">
        <ele>37</ele>
        <time>2021-04-29T15:50:22+02:00</time>
      </trkpt>
      <trkpt lat="48.79214" lon="2.39559">
        <ele>37</ele>
        <time>2021-04-29T15:50:27+02:00</time>
      </trkpt>
      <trkpt lat="48.79233" lon="2.39591">
        <ele>36</ele>
        <time>2021-04-29T15:50:32+02:00</time>
      </trkpt>
      <trkpt lat="48.79248" lon="2.39589">
        <ele>36</ele>
        <time>2021-04-29T15:50:37+02:00</time>
      </trkpt>
      <trkpt lat="48.79252" lon="2.39611">
        <ele>35</ele>
        <time>2021-04-29T15:50:42+02:00</time>
      </trkpt>
      <trkpt lat="48.79294" lon="2.39595">
        <ele>34</ele>
        <time>2021-04-29T15:50:47+02:00</time>
      </trkpt>
      <trkpt lat="48.79307" lon="2.39595">
        <ele>34</ele>
        <time>2021-04-29T15:50:52+02:00</time>
      </trkpt>
      <trkpt lat="48.79322" lon="2.39586">
        <ele>33</ele>
        <time>2021-04-29T15:50:57+02:00</time>
      </trkpt>
      <trkpt lat="48.79341" lon="2.39607">
        <ele>33</ele>
        <time>2021-04-29T15:51:02+02:00</time>
      </trkpt>
      <trkpt lat="48.79322" lon="2.39587">
        <ele>33</ele>
        <time>2021-04-29T15:51:07+02:00</time>
      </trkpt>
      <trkpt lat="48.79318" lon="2.39556">
        <ele>34</ele>
        <time>2021-04-29T15:51:12+02:00</time>
      </trkpt>
      <trkpt lat="48.79314" lon="2.39539">
        <ele>35</ele>
        <time>2021-04-29T15:51:17+02:00</time>
      </trkpt>
      <trkpt lat="48.79309" lon="2.39445">
        <ele>36</ele>
        <time>2021-04-29T15:51:22+02:00</time>
      </trkpt>
      <trkpt lat="48.79303" lon="2.3936">
        <ele>36</ele>
        <time>2021-04-29T15:51:27+02:00</time>
      </trkpt>
      <trkpt lat="48.79299" lon="2.393">
        <ele>38</ele>
        <time>2021-04-29T15:51:32+02:00</time>
      </trkpt>
      <trkpt lat="48.79278" lon="2.39309">
        <ele>38</ele>
        <time>2021-04-29T15:51:37+02:00</time>
      </trkpt>
      <trkpt lat="48.79281" lon="2.39339">
        <ele>36</ele>
        <time>2021-04-29T15:51:42+02:00</time>
      </trkpt>
      <trkpt lat="48.79225" lon="2.39388">
        <ele>37</ele>
        <time>2021-04-29T15:51:47+02:00</time>
      </trkpt>
      <trkpt lat="48.79176" lon="2.39435">
        <ele>37</ele>
        <time>2021-04-29T15:51:52+02:00</time>
      </trkpt>
      <trkpt lat="48.79167" lon="2.39388">
        <ele>37</ele>
        <time>2021-04-29T15:51:57+02:00</time>
      </trkpt>
      <trkpt lat="48.79149" lon="2.39411">
        <ele>37</ele>
        <time>2021-04-29T15:52:02+02:00</time>
      </trkpt>
      <trkpt lat="48.79126" lon="2.39374">
        <ele>38</ele>
        <time>2021-04-29T15:52:07+02:00</time>
      </trkpt>
      <trkpt lat="48.79133" lon="2.39348">
        <ele>38</ele>
        <time>2021-04-29T15:52:12+02:00</time>
      </trkpt>
      <trkpt lat="48.79133" lon="2.39303">
        <ele>39</ele>
        <time>2021-04-29T15:52:17+02:00</time>
      </trkpt>
      <trkpt lat="48.79128" lon="2.39267">
        <ele>40</ele>
        <time>2021-04-29T15:52:22+02:00</time>
      </trkpt>
      <trkpt lat="48.79119" lon="2.39249">
        <ele>40</ele>
        <time>2021-04-29T15:52:27+02:00</time>
      </trkpt>
      <trkpt lat="48.79112" lon="2.39245">
        <ele>40</ele>
        <time>2021-04-29T15:52:32+02:00</time>
      </trkpt>
      <trkpt lat="48.79131" lon="2.39218">
        <ele>41</ele>
        <time>2021-04-29T15:52:37+02:00</time>
      </trkpt>
      <trkpt lat="48.79157" lon="2.39183">
        <ele>41</ele>
        <time>2021-04-29T15:52:42+02:00</time>
      </trkpt>
      <trkpt lat="48.79153" lon="2.39172">
        <ele>41</ele>
        <time>2021-04-29T15:52:47+02:00</time>
      </trkpt>
      <trkpt lat="48.79134" lon="2.39087">
        <ele>45</ele>
        <time>2021-04-29T15:52:52+02:00</time>
      </trkpt>
      <trkpt lat="48.79141" lon="2.3907">
        <ele>45</ele>
        <time>2021-04-29T15:52:57+02:00</time>
      </trkpt>
      <trkpt lat="48.79147" lon="2.39039">
        <ele>46</ele>
        <time>2021-04-29T15:53:02+02:00</time>
      </trkpt>
      <trkpt lat="48.79159" lon="2.38989">
        <ele>46</ele>
        <time>2021-04-29T15:53:07+02:00</time>
      </trkpt>
      <trkpt lat="48.79163" lon="2.38962">
        <ele>47</ele>
        <time>2021-04-29T15:53:12+02:00</time>
      </trkpt>
      <trkpt lat="48.79168" lon="2.38934">
        <ele>48</ele>
        <time>2021-04-29T15:53:17+02:00</time>
      </trkpt>
      <trkpt lat="48.79167" lon="2.38919">
        <ele>49</ele>
        <time>2021-04-29T15:53:22+02:00</time>
      </trkpt>
      <trkpt lat="48.79174" lon="2.38886">
        <ele>50</ele>
        <time>2021-04-29T15:53:27+02:00</time>
      </trkpt>
      <trkpt lat="48.79179" lon="2.38878">
        <ele>50</ele>
        <time>2021-04-29T15:53:32+02:00</time>
      </trkpt>
      <trkpt lat="48.79184" lon="2.38846">
        <ele>51</ele>
        <time>2021-04-29T15:53:37+02:00</time>
      </trkpt>
      <trkpt lat="48.79181" lon="2.38839">
        <ele>51</ele>
        <time>2021-04-29T15:53:42+02:00</time>
      </trkpt>
      <trkpt lat="48.79164" lon="2.38851">
        <ele>51</ele>
        <time>2021-04-29T15:53:47+02:00</time>
      </trkpt>
      <trkpt lat="48.79158" lon="2.3886">
        <ele>51</ele>
        <time>2021-04-29T15:53:52+02:00</time>
      </trkpt>
      <trkpt lat="48.7915" lon="2.38869">
        <ele>52</ele>
        <time>2021-04-29T15:53:57+02:00</time>
      </trkpt>
      <trkpt lat="48.79139" lon="2.3886">
        <ele>52</ele>
        <time>2021-04-29T15:54:02+02:00</time>
      </trkpt>
      <trkpt lat="48.79105" lon="2.38886">
        <ele>54</ele>
        <time>2021-04-29T15:54:07+02:00</time>
      </trkpt>
      <trkpt lat="48.79101" lon="2.38877">
        <ele>54</ele>
        <time>2021-04-29T15:54:12+02:00</time>
      </trkpt>
      <trkpt lat="48.7906" lon="2.3891">
        <ele>55</ele>
        <time>2021-04-29T15:54:17+02:00</time>
      </trkpt>
      <trkpt lat="48.79057" lon="2.38903">
        <ele>54</ele>
        <time>2021-04-29T15:54:22+02:00</time>
      </trkpt>
      <trkpt lat="48.7904" lon="2.38904">
        <ele>53</ele>
        <time>2021-04-29T15:54:27+02:00</time>
      </trkpt>
      <trkpt lat="48.79023" lon="2.3891">
        <ele>52</ele>
        <time>2021-04-29T15:54:32+02:00</time>
      </trkpt>
      <trkpt lat="48.79007" lon="2.38915">
        <ele>51</ele>
        <time>2021-04-29T15:54:37+02:00</time>
      </trkpt>
      <trkpt lat="48.78995" lon="2.38927">
        <ele>51</ele>
        <time>2021-04-29T15:54:42+02:00</time>
      </trkpt>
      <trkpt lat="48.78985" lon="2.38898">
        <ele>51</ele>
        <time>2021-04-29T15:54:47+02:00</time>
      </trkpt>
      <trkpt lat="48.78962" lon="2.38918">
        <ele>50</ele>
        <time>2021-04-29T15:54:52+02:00</time>
      </trkpt>
      <trkpt lat="48.78956" lon="2.38915">
        <ele>50</ele>
        <time>2021-04-29T15:54:57+02:00</time>
      </trkpt>
      <trkpt lat="48.78939" lon="2.38932">
        <ele>49</ele>
        <time>2021-04-29T15:55:02+02:00</time>
      </trkpt>
      <trkpt lat="48.78834" lon="2.39018">
        <ele>49</ele>
        <time>2021-04-29T15:55:07+02:00</time>
      </trkpt>
      <trkpt lat="48.78846" lon="2.39056">
        <ele>48</ele>
        <time>2021-04-29T15:55:12+02:00</time>
      </trkpt>
      <trkpt lat="48.78811" lon="2.39077">
        <ele>48</ele>
        <time>2021-04-29T15:55:17+02:00</time>
      </trkpt>
      <trkpt lat="48.78782" lon="2.39089">
        <ele>48</ele>
        <time>2021-04-29T15:55:22+02:00</time>
      </trkpt>
      <trkpt lat="48.78801" lon="2.39135">
        <ele>47</ele>
        <time>2021-04-29T15:55:27+02:00</time>
      </trkpt>
      <trkpt lat="48.78826" lon="2.39098">
        <ele>48</ele>
        <time>2021-04-29T15:55:32+02:00</time>
      </trkpt>
      <trkpt lat="48.78842" lon="2.3912">
        <ele>47</ele>
        <time>2021-04-29T15:55:37+02:00</time>
      </trkpt>
      <trkpt lat="48.78813" lon="2.39162">
        <ele>46</ele>
        <time>2021-04-29T15:55:42+02:00</time>
      </trkpt>
      <trkpt lat="48.78853" lon="2.39257">
        <ele>43</ele>
        <time>2021-04-29T15:55:47+02:00</time>
      </trkpt>
      <trkpt lat="48.78928" lon="2.39209">
        <ele>43</ele>
        <time>2021-04-29T15:55:52+02:00</time>
      </trkpt>
      <trkpt lat="48.78981" lon="2.39173">
        <ele>44</ele>
        <time>2021-04-29T15:55:57+02:00</time>
      </trkpt>
      <trkpt lat="48.79013" lon="2.39151">
        <ele>46</ele>
        <time>2021-04-29T15:56:02+02:00</time>
      </trkpt>
      <trkpt lat="48.79061" lon="2.39277">
        <ele>39</ele>
        <time>2021-04-29T15:56:07+02:00</time>
      </trkpt>
      <trkpt lat="48.79027" lon="2.39296">
        <ele>39</ele>
        <time>2021-04-29T15:56:12+02:00</time>
      </trkpt>
      <trkpt lat="48.79012" lon="2.39243">
        <ele>40</ele>
        <time>2021-04-29T15:56:17+02:00</time>
      </trkpt>
      <trkpt lat="48.79027" lon="2.39296">
        <ele>39</ele>
        <time>2021-04-29T15:56:22+02:00</time>
      </trkpt>
      <trkpt lat="48.79061" lon="2.39277">
        <ele>39</ele>
        <time>2021-04-29T15:56:27+02:00</time>
      </trkpt>
      <trkpt lat="48.79086" lon="2.3935">
        <ele>38</ele>
        <time>2021-04-29T15:56:32+02:00</time>
      </trkpt>
      <trkpt lat="48.79105" lon="2.39412">
        <ele>37</ele>
        <time>2021-04-29T15:56:37+02:00</time>
      </trkpt>
      <trkpt lat="48.79127" lon="2.39467">
        <ele>37</ele>
        <time>2021-04-29T15:56:42+02:00</time>
      </trkpt>
      <trkpt lat="48.79118" lon="2.39475">
        <ele>37</ele>
        <time>2021-04-29T15:56:47+02:00</time>
      </trkpt>
      <trkpt lat="48.79086" lon="2.39493">
        <ele>36</ele>
        <time>2021-04-29T15:56:52+02:00</time>
      </trkpt>
      <trkpt lat="48.79081" lon="2.39472">
        <ele>36</ele>
        <time>2021-04-29T15:56:57+02:00</time>
      </trkpt>
      <trkpt lat="48.79086" lon="2.3946">
        <ele>37</ele>
        <time>2021-04-29T15:57:02+02:00</time>
      </trkpt>
      <trkpt lat="48.79075" lon="2.39419">
        <ele>37</ele>
        <time>2021-04-29T15:57:07+02:00</time>
      </trkpt>
      <trkpt lat="48.79074" lon="2.39409">
        <ele>37</ele>
        <time>2021-04-29T15:57:12+02:00</time>
      </trkpt>
      <trkpt lat="48.79057" lon="2.39344">
        <ele>38</ele>
        <time>2021-04-29T15:57:17+02:00</time>
      </trkpt>
      <trkpt lat="48.79033" lon="2.39358">
        <ele>37</ele>
        <time>2021-04-29T15:57:22+02:00</time>
      </trkpt>
      <trkpt lat="48.79027" lon="2.39352">
        <ele>37</ele>
        <time>2021-04-29T15:57:27+02:00</time>
      </trkpt>
      <trkpt lat="48.79014" lon="2.3931">
        <ele>38</ele>
        <time>2021-04-29T15:57:32+02:00</time>
      </trkpt>
      <trkpt lat="48.78997" lon="2.3932">
        <ele>38</ele>
        <time>2021-04-29T15:57:37+02:00</time>
      </trkpt>
      <trkpt lat="48.79001" lon="2.39338">
        <ele>37</ele>
        <time>2021-04-29T15:57:42+02:00</time>
      </trkpt>
      <trkpt lat="48.79017" lon="2.39382">
        <ele>36</ele>
        <time>2021-04-29T15:57:47+02:00</time>
      </trkpt>
      <trkpt lat="48.79001" lon="2.39338">
        <ele>37</ele>
        <time>2021-04-29T15:57:52+02:00</time>
      </trkpt>
      <trkpt lat="48.78997" lon="2.3932">
        <ele>38</ele>
        <time>2021-04-29T15:57:57+02:00</time>
      </trkpt>
      <trkpt lat="48.78991" lon="2.39321">
        <ele>38</ele>
        <time>2021-04-29T15:58:02+02:00</time>
      </trkpt>
      <trkpt lat="48.78985" lon="2.39301">
        <ele>39</ele>
        <time>2021-04-29T15:58:07+02:00</time>
      </trkpt>
      <trkpt lat="48.78976" lon="2.39306">
        <ele>39</ele>
        <time>2021-04-29T15:58:12+02:00</time>
      </trkpt>
      <trkpt lat="48.78971" lon="2.3928">
        <ele>40</ele>
        <time>2021-04-29T15:58:17+02:00</time>
      </trkpt>
      <trkpt lat="48.78933" lon="2.39305">
        <ele>40</ele>
        <time>2021-04-29T15:58:22+02:00</time>
      </trkpt>
      <trkpt lat="48.78928" lon="2.39292">
        <ele>41</ele>
        <time>2021-04-29T15:58:27+02:00</time>
      </trkpt>
      <trkpt lat="48.78915" lon="2.39294">
        <ele>41</ele>
        <time>2021-04-29T15:58:32+02:00</time>
      </trkpt>
      <trkpt lat="48.78881" lon="2.39318">
        <ele>40</ele>
        <time>2021-04-29T15:58:37+02:00</time>
      </trkpt>
      <trkpt lat="48.78861" lon="2.39332">
        <ele>40</ele>
        <time>2021-04-29T15:58:42+02:00</time>
      </trkpt>
      <trkpt lat="48.78807" lon="2.39375">
        <ele>39</ele>
        <time>2021-04-29T15:58:47+02:00</time>
      </trkpt>
      <trkpt lat="48.78744" lon="2.39435">
        <ele>39</ele>
        <time>2021-04-29T15:58:52+02:00</time>
      </trkpt>
      <trkpt lat="48.78684" lon="2.3948">
        <ele>40</ele>
        <time>2021-04-29T15:58:57+02:00</time>
      </trkpt>
      <trkpt lat="48.78723" lon="2.39631">
        <ele>40</ele>
        <time>2021-04-29T15:59:02+02:00</time>
      </trkpt>
      <trkpt lat="48.78746" lon="2.39712">
        <ele>36</ele>
        <time>2021-04-29T15:59:07+02:00</time>
      </trkpt>
      <trkpt lat="48.78766" lon="2.39788">
        <ele>34</ele>
        <time>2021-04-29T15:59:12+02:00</time>
      </trkpt>
      <trkpt lat="48.78771" lon="2.398">
        <ele>34</ele>
        <time>2021-04-29T15:59:17+02:00</time>
      </trkpt>
      <trkpt lat="48.78778" lon="2.3981">
        <ele>34</ele>
        <time>2021-04-29T15:59:22+02:00</time>
      </trkpt>
      <trkpt lat="48.78802" lon="2.398">
        <ele>34</ele>
        <time>2021-04-29T15:59:27+02:00</time>
      </trkpt>
      <trkpt lat="48.78779" lon="2.3981">
        <ele>34</ele>
        <time>2021-04-29T15:59:32+02:00</time>
      </trkpt>
      <trkpt lat="48.78761" lon="2.39819">
        <ele>34</ele>
        <time>2021-04-29T15:59:37+02:00</time>
      </trkpt>
      <trkpt lat="48.78732" lon="2.39841">
        <ele>34</ele>
        <time>2021-04-29T15:59:42+02:00</time>
      </trkpt>
      <trkpt lat="48.78645" lon="2.39904">
        <ele>35</ele>
        <time>2021-04-29T15:59:47+02:00</time>
      </trkpt>
      <trkpt lat="48.7855" lon="2.39976">
        <ele>36</ele>
        <time>2021-04-29T15:59:52+02:00</time>
      </trkpt>
      <trkpt lat="48.7848" lon="2.40025">
        <ele>35</ele>
        <time>2021-04-29T15:59:57+02:00</time>
      </trkpt>
      <trkpt lat="48.78457" lon="2.39935">
        <ele>36</ele>
        <time>2021-04-29T16:00:02+02:00</time>
      </trkpt>
      <trkpt lat="48.78423" lon="2.39959">
        <ele>35</ele>
        <time>2021-04-29T16:00:07+02:00</time>
      </trkpt>
      <trkpt lat="48.78416" lon="2.39939">
        <ele>35</ele>
        <time>2021-04-29T16:00:12+02:00</time>
      </trkpt>
      <trkpt lat="48.78405" lon="2.39948">
        <ele>35</ele>
        <time>2021-04-29T16:00:17+02:00</time>
      </trkpt>
      <trkpt lat="48.78422" lon="2.40009">
        <ele>35</ele>
        <time>2021-04-29T16:00:22+02:00</time>
      </trkpt>
      <trkpt lat="48.78399" lon="2.40026">
        <ele>35</ele>
        <time>2021-04-29T16:00:27+02:00</time>
      </trkpt>
      <trkpt lat="48.78422" lon="2.40009">
        <ele>35</ele>
        <time>2021-04-29T16:00:32+02:00</time>
      </trkpt>
      <trkpt lat="48.78406" lon="2.39948">
        <ele>35</ele>
        <time>2021-04-29T16:00:37+02:00</time>
      </trkpt>
      <trkpt lat="48.78416" lon="2.39939">
        <ele>35</ele>
        <time>2021-04-29T16:00:42+02:00</time>
      </trkpt>
      <trkpt lat="48.78423" lon="2.39959">
        <ele>35</ele>
        <time>2021-04-29T16:00:47+02:00</time>
      </trkpt>
      <trkpt lat="48.78457" lon="2.39935">
        <ele>36</ele>
        <time>2021-04-29T16:00:52+02:00</time>
      </trkpt>
      <trkpt lat="48.78481" lon="2.40026">
        <ele>35</ele>
        <time>2021-04-29T16:00:57+02:00</time>
      </trkpt>
      <trkpt lat="48.78395" lon="2.40094">
        <ele>35</ele>
        <time>2021-04-29T16:01:02+02:00</time>
      </trkpt>
      <trkpt lat="48.78295" lon="2.40168">
        <ele>34</ele>
        <time>2021-04-29T16:01:07+02:00</time>
      </trkpt>
      <trkpt lat="48.78279" lon="2.40177">
        <ele>34</ele>
        <time>2021-04-29T16:01:12+02:00</time>
      </trkpt>
      <trkpt lat="48.78267" lon="2.40191">
        <ele>35</ele>
        <time>2021-04-29T16:01:17+02:00</time>
      </trkpt>
      <trkpt lat="48.78263" lon="2.40179">
        <ele>35</ele>
        <time>2021-04-29T16:01:22+02:00</time>
      </trkpt>
      <trkpt lat="48.78233" lon="2.40119">
        <ele>36</ele>
        <time>2021-04-29T16:01:27+02:00</time>
      </trkpt>
      <trkpt lat="48.78204" lon="2.40137">
        <ele>36</ele>
        <time>2021-04-29T16:01:32+02:00</time>
      </trkpt>
      <trkpt lat="48.78182" lon="2.40157">
        <ele>37</ele>
        <time>2021-04-29T16:01:37+02:00</time>
      </trkpt>
      <trkpt lat="48.78169" lon="2.40133">
        <ele>37</ele>
        <time>2021-04-29T16:01:42+02:00</time>
      </trkpt>
      <trkpt lat="48.78166" lon="2.4006">
        <ele>36</ele>
        <time>2021-04-29T16:01:47+02:00</time>
      </trkpt>
      <trkpt lat="48.78159" lon="2.40048">
        <ele>37</ele>
        <time>2021-04-29T16:01:52+02:00</time>
      </trkpt>
      <trkpt lat="48.78138" lon="2.40068">
        <ele>37</ele>
        <time>2021-04-29T16:01:57+02:00</time>
      </trkpt>
      <trkpt lat="48.78112" lon="2.4009">
        <ele>37</ele>
        <time>2021-04-29T16:02:02+02:00</time>
      </trkpt>
      <trkpt lat="48.78107" lon="2.40091">
        <ele>37</ele>
        <time>2021-04-29T16:02:07+02:00</time>
      </trkpt>
      <trkpt lat="48.78075" lon="2.40008">
        <ele>38</ele>
        <time>2021-04-29T16:02:12+02:00</time>
      </trkpt>
      <trkpt lat="48.7807" lon="2.39958">
        <ele>39</ele>
        <time>2021-04-29T16:02:17+02:00</time>
      </trkpt>
      <trkpt lat="48.78022" lon="2.39967">
        <ele>39</ele>
        <time>2021-04-29T16:02:22+02:00</time>
      </trkpt>
      <trkpt lat="48.77993" lon="2.39973">
        <ele>40</ele>
        <time>2021-04-29T16:02:27+02:00</time>
      </trkpt>
      <trkpt lat="48.77972" lon="2.39995">
        <ele>40</ele>
        <time>2021-04-29T16:02:32+02:00</time>
      </trkpt>
      <trkpt lat="48.77959" lon="2.39969">
        <ele>40</ele>
        <time>2021-04-29T16:02:37+02:00</time>
      </trkpt>
      <trkpt lat="48.77902" lon="2.40019">
        <ele>42</ele>
        <time>2021-04-29T16:02:42+02:00</time>
      </trkpt>
      <trkpt lat="48.77939" lon="2.40129">
        <ele>42</ele>
        <time>2021-04-29T16:02:47+02:00</time>
      </trkpt>
      <trkpt lat="48.77897" lon="2.4016">
        <ele>43</ele>
        <time>2021-04-29T16:02:52+02:00</time>
      </trkpt>
      <trkpt lat="48.77949" lon="2.40328">
        <ele>42</ele>
        <time>2021-04-29T16:02:57+02:00</time>
      </trkpt>
      <trkpt lat="48.78035" lon="2.40263">
        <ele>39</ele>
        <time>2021-04-29T16:03:02+02:00</time>
      </trkpt>
      <trkpt lat="48.78059" lon="2.4034">
        <ele>38</ele>
        <time>2021-04-29T16:03:07+02:00</time>
      </trkpt>
      <trkpt lat="48.78116" lon="2.40297">
        <ele>36</ele>
        <time>2021-04-29T16:03:12+02:00</time>
      </trkpt>
      <trkpt lat="48.78159" lon="2.40265">
        <ele>36</ele>
        <time>2021-04-29T16:03:17+02:00</time>
      </trkpt>
      <trkpt lat="48.78266" lon="2.40191">
        <ele>35</ele>
        <time>2021-04-29T16:03:22+02:00</time>
      </trkpt>
      <trkpt lat="48.7829" lon="2.40315">
        <ele>34</ele>
        <time>2021-04-29T16:03:27+02:00</time>
      </trkpt>
      <trkpt lat="48.78314" lon="2.40444">
        <ele>33</ele>
        <time>2021-04-29T16:03:32+02:00</time>
      </trkpt>
      <trkpt lat="48.78359" lon="2.40689">
        <ele>32</ele>
        <time>2021-04-29T16:03:37+02:00</time>
      </trkpt>
      <trkpt lat="48.78369" lon="2.40711">
        <ele>32</ele>
        <time>2021-04-29T16:03:42+02:00</time>
      </trkpt>
      <trkpt lat="48.78371" lon="2.4074">
        <ele>32</ele>
        <time>2021-04-29T16:03:47+02:00</time>
      </trkpt>
      <trkpt lat="48.78367" lon="2.4076">
        <ele>32</ele>
        <time>2021-04-29T16:03:52+02:00</time>
      </trkpt>
      <trkpt lat="48.78359" lon="2.40776">
        <ele>32</ele>
        <time>2021-04-29T16:03:57+02:00</time>
      </trkpt>
      <trkpt lat="48.78337" lon="2.40772">
        <ele>32</ele>
        <time>2021-04-29T16:04:02+02:00</time>
      </trkpt>
      <trkpt lat="48.78331" lon="2.40774">
        <ele>32</ele>
        <time>2021-04-29T16:04:07+02:00</time>
      </trkpt>
      <trkpt lat="48.78338" lon="2.40904">
        <ele>33</ele>
        <time>2021-04-29T16:04:12+02:00</time>
      </trkpt>
      <trkpt lat="48.78305" lon="2.40909">
        <ele>33</ele>
        <time>2021-04-29T16:04:17+02:00</time>
      </trkpt>
      <trkpt lat="48.78298" lon="2.40925">
        <ele>33</ele>
        <time>2021-04-29T16:04:22+02:00</time>
      </trkpt>
    </trkseg>
  </trk>
</gpx>